M/V Ave Maria — WDD5063 — position and weather

sailwx.info

Track history (hours):
 
Tides and Currents Weather Stations Pressure Air Temp Water Temp Dewpoint Dewpoint Depression Visibility Wind Speed Wind Dir Waves Ship Positions

M/V Ave Maria

Owner: Marquette Transportation Company Gulf-Inland, LLC, Jefferson, LA. More information available from US FCC via Universal Licensing System and Coast Guard Vessel Documentation Center.

Last reported at 2018-May-23 22:14 UTC. Time now 2018-May-24 00:31 UTC.
Position N 29°47' W 095°04'.

; draft 2.7 m.

Type: Towing. MMSI: 367126410.

Date/timePositionNaut miles runAvg speedWind from/ knotsBaromVisibWave heightAir tempDewpointWater temp
2018-May-23 22:14N 29°47' W 095°04'0 0.0
2018-May-23 21:50N 29°47' W 095°04'0 0.0
2018-May-23 21:17N 29°47' W 095°04'0 0.0
2018-May-23 20:43N 29°47' W 095°04'0 0.0
2018-May-23 20:21N 29°47' W 095°04'  
2018-May-21 04:43N 29°46' W 095°05'2 5.0
2018-May-21 04:13N 29°44' W 095°07'1 5.0
2018-May-21 03:57N 29°44' W 095°08'2 5.0
2018-May-21 03:30N 29°45' W 095°11'0 0.0
2018-May-20 20:26N 29°45' W 095°10'5 0.3
2018-May-20 03:36N 29°46' W 095°05'0 0.0
2018-May-20 03:18N 29°46' W 095°05'0 0.0
2018-May-19 13:17N 29°46' W 095°05'0 0.0
2018-May-19 12:57N 29°46' W 095°05'0 0.0
2018-May-19 11:35N 29°46' W 095°05'0 0.0
2018-May-19 09:16N 29°46' W 095°05'0 0.0
2018-May-19 08:50N 29°46' W 095°05'0 0.0
2018-May-19 08:23N 29°46' W 095°05'0 0.0
2018-May-19 08:00N 29°46' W 095°05'0 0.0
2018-May-19 07:21N 29°46' W 095°05'0 0.0
2018-May-19 06:43N 29°46' W 095°05'0 0.0
2018-May-19 06:16N 29°46' W 095°05'0 0.0
2018-May-19 06:00N 29°46' W 095°05'0 0.0
2018-May-19 05:22N 29°46' W 095°05'0 0.0
2018-May-19 05:00N 29°46' W 095°05'0 0.0
2018-May-19 04:31N 29°46' W 095°05'0 0.0
2018-May-19 03:32N 29°46' W 095°05'0 0.0
2018-May-19 03:29N 29°46' W 095°05'0 0.0
2018-May-19 02:39N 29°46' W 095°05'0 0.0
2018-May-19 02:28N 29°46' W 095°05'0 0.0
2018-May-19 01:28N 29°46' W 095°05'0 0.0
2018-May-19 00:56N 29°46' W 095°05'0 0.0
2018-May-18 13:38N 29°46' W 095°05'0 0.0
2018-May-18 12:22N 29°46' W 095°05'0 0.0
2018-May-18 12:00N 29°46' W 095°05'0 0.0
2018-May-18 11:28N 29°46' W 095°05'0 0.0
2018-May-18 10:59N 29°46' W 095°05'0 0.0
2018-May-18 10:29N 29°46' W 095°05'0 0.0
2018-May-18 10:00N 29°46' W 095°05'0 0.0
2018-May-18 09:30N 29°46' W 095°05'0 0.0
2018-May-18 09:01N 29°46' W 095°05'0 0.0
2018-May-18 08:29N 29°46' W 095°05'0 0.0
2018-May-18 08:00N 29°46' W 095°05'0 0.0
2018-May-18 07:30N 29°46' W 095°05'0 0.0
2018-May-18 07:00N 29°46' W 095°05'0 0.0
2018-May-18 06:30N 29°46' W 095°05'0 0.0
2018-May-18 06:00N 29°46' W 095°05'0 0.0
2018-May-18 05:30N 29°46' W 095°05'0 0.0
2018-May-18 05:01N 29°46' W 095°05'0 0.0
2018-May-18 04:31N 29°46' W 095°05'0 0.0
2018-May-18 04:01N 29°46' W 095°05'0 0.0
2018-May-18 03:30N 29°46' W 095°05'0 0.0
2018-May-18 03:00N 29°46' W 095°05'0 0.0
2018-May-18 02:30N 29°46' W 095°05'0 0.0
2018-May-18 02:00N 29°46' W 095°05'0 0.0
2018-May-18 01:25N 29°46' W 095°05'0 0.0
2018-May-17 14:00N 29°46' W 095°05'0 0.0
2018-May-17 13:30N 29°46' W 095°05'0 0.0
2018-May-17 13:00N 29°46' W 095°05'0 0.0
2018-May-17 12:30N 29°46' W 095°05'0 0.0
2018-May-17 11:59N 29°46' W 095°05'0 0.0
2018-May-17 11:29N 29°46' W 095°05'0 0.5
2018-May-17 10:59N 29°46' W 095°05'0 0.5
2018-May-17 10:30N 29°46' W 095°05'0 0.0
2018-May-17 10:00N 29°46' W 095°05'0 0.0
2018-May-17 09:30N 29°46' W 095°05'0 0.0
2018-May-17 09:00N 29°46' W 095°05'0 0.0
2018-May-17 08:28N 29°46' W 095°05'0 0.0
2018-May-17 08:00N 29°46' W 095°05'0 0.0
2018-May-17 07:30N 29°46' W 095°05'0 0.0
2018-May-17 06:46N 29°46' W 095°05'0 0.0
2018-May-17 06:28N 29°46' W 095°05'0 0.0
2018-May-17 06:00N 29°46' W 095°05'0 0.0
2018-May-17 05:30N 29°46' W 095°05'0 0.0
2018-May-17 05:00N 29°46' W 095°05'0 0.0
2018-May-17 04:29N 29°46' W 095°05'0 0.0
2018-May-17 04:01N 29°46' W 095°05'0 0.0
2018-May-17 03:30N 29°46' W 095°05'0 0.0
2018-May-17 03:00N 29°46' W 095°05'0 0.0
2018-May-17 02:30N 29°46' W 095°05'0 0.0
2018-May-17 02:00N 29°46' W 095°05'0 0.0
2018-May-17 01:30N 29°46' W 095°05'0 0.0
2018-May-16 14:59N 29°46' W 095°05'0 0.0
2018-May-16 14:30N 29°46' W 095°05'0 0.0
2018-May-16 14:00N 29°46' W 095°05'0 0.0
2018-May-16 13:30N 29°46' W 095°05'0 0.0
2018-May-16 13:00N 29°46' W 095°05'0 0.0
2018-May-16 12:30N 29°46' W 095°05'0 0.0
2018-May-16 12:01N 29°46' W 095°05'0 0.0
2018-May-16 11:31N 29°46' W 095°05'0 0.0
2018-May-16 11:00N 29°46' W 095°05'0 0.0
2018-May-16 10:30N 29°46' W 095°05'0 0.0
2018-May-16 10:00N 29°46' W 095°05'0 0.0
2018-May-16 09:30N 29°46' W 095°05'0 0.0
2018-May-16 09:00N 29°46' W 095°05'0 0.0
2018-May-16 08:30N 29°46' W 095°05'0 0.0
2018-May-16 08:00N 29°46' W 095°05'0 0.0
2018-May-16 07:30N 29°46' W 095°05'0 0.0
2018-May-16 07:00N 29°46' W 095°05'0 0.0
2018-May-16 06:28N 29°46' W 095°05'0 0.0
2018-May-16 06:00N 29°46' W 095°05'0 0.0
2018-May-16 05:30N 29°46' W 095°05'0 0.0
2018-May-16 04:59N 29°46' W 095°05'0 0.0
2018-May-16 04:30N 29°46' W 095°05'0 0.0
2018-May-16 04:00N 29°46' W 095°05'0 0.0
2018-May-16 03:30N 29°46' W 095°05'0 0.0
2018-May-16 03:00N 29°46' W 095°05'0 0.0
2018-May-16 02:29N 29°46' W 095°05'0 0.0
2018-May-16 02:00N 29°46' W 095°05'0 0.0
2018-May-16 01:30N 29°46' W 095°05'0 0.0
2018-May-16 01:00N 29°46' W 095°05'1 0.1
2018-May-15 19:27N 29°46' W 095°06'0 0.0
2018-May-15 18:59N 29°46' W 095°06'0 0.0
2018-May-15 18:16N 29°46' W 095°06'0 0.0
2018-May-15 17:58N 29°46' W 095°06'0 0.0
2018-May-15 17:30N 29°46' W 095°06'0 0.0
2018-May-15 17:00N 29°46' W 095°06'0 0.0
2018-May-15 16:25N 29°46' W 095°06'1 1.1
2018-May-15 15:41N 29°46' W 095°05'0 0.0
2018-May-15 15:19N 29°46' W 095°05'0 0.0
2018-May-15 14:49N 29°46' W 095°05'0 0.0
2018-May-15 14:30N 29°46' W 095°05'0 0.0
2018-May-15 14:00N 29°46' W 095°05'0 0.0
2018-May-15 13:30N 29°46' W 095°05'0 0.0
2018-May-15 13:00N 29°46' W 095°05'0 0.0
2018-May-15 12:30N 29°46' W 095°05'0 0.0
2018-May-15 12:00N 29°46' W 095°05'0 0.0
2018-May-15 11:30N 29°46' W 095°05'0 0.0
2018-May-15 11:00N 29°46' W 095°05'0 0.0
2018-May-15 10:30N 29°46' W 095°05'0 0.0
2018-May-15 10:00N 29°46' W 095°05'0 0.0
2018-May-15 09:26N 29°46' W 095°05'0 0.0
2018-May-15 09:00N 29°46' W 095°05'0 0.0
2018-May-15 08:30N 29°46' W 095°05'0 0.0
2018-May-15 08:00N 29°46' W 095°05'0 0.0
2018-May-15 07:28N 29°46' W 095°05'0 0.0
2018-May-15 07:00N 29°46' W 095°05'0 0.0
2018-May-15 06:30N 29°46' W 095°05'0 0.0
2018-May-15 06:00N 29°46' W 095°05'0 0.0
2018-May-15 05:30N 29°46' W 095°05'0 0.0
2018-May-15 05:00N 29°46' W 095°05'0 0.0
2018-May-15 04:30N 29°46' W 095°05'0 0.0
2018-May-15 03:56N 29°46' W 095°05'0 0.0
2018-May-15 03:30N 29°46' W 095°05'0 0.0
2018-May-15 03:00N 29°46' W 095°05'0 0.0
2018-May-15 02:30N 29°46' W 095°05'0 0.0
2018-May-15 02:00N 29°46' W 095°05'0 0.0
2018-May-15 01:30N 29°46' W 095°05'0 0.0
2018-May-15 01:00N 29°46' W 095°05'0 0.0
2018-May-15 00:28N 29°46' W 095°05'0 0.0
2018-May-14 16:39N 29°46' W 095°05'0 0.0
2018-May-14 16:28N 29°46' W 095°05'0 0.0
2018-May-14 16:00N 29°46' W 095°05'0 0.0
2018-May-14 15:27N 29°46' W 095°05'0 0.0
2018-May-14 14:56N 29°46' W 095°05'0 0.0
2018-May-14 14:21N 29°46' W 095°05'0 0.0
2018-May-14 13:54N 29°46' W 095°05'0 0.0
2018-May-14 13:24N 29°46' W 095°05'0 0.0
2018-May-14 13:00N 29°46' W 095°05'0 0.0
2018-May-14 12:30N 29°46' W 095°05'0 0.0
2018-May-14 11:45N 29°46' W 095°05'0 0.0
2018-May-14 11:09N 29°46' W 095°05'0 0.0
2018-May-14 10:14N 29°46' W 095°05'0 0.0
2018-May-14 05:55N 29°46' W 095°05'0 0.0
2018-May-14 03:53N 29°46' W 095°05'0 0.0
2018-May-14 03:30N 29°46' W 095°05'0 0.0
2018-May-14 02:57N 29°46' W 095°05'0 0.0
2018-May-14 02:20N 29°46' W 095°05'0 0.0
2018-May-14 02:00N 29°46' W 095°05'0 0.0
2018-May-14 00:51N 29°46' W 095°05'0 0.0
2018-May-14 00:15N 29°46' W 095°05'0 0.0
2018-May-13 23:57N 29°46' W 095°05'0 0.0
2018-May-13 23:30N 29°46' W 095°05'  
Track history (hours):
 
Tides and Currents Weather Stations Pressure Air Temp Water Temp Dewpoint Dewpoint Depression Visibility Wind Speed Wind Dir Waves Ship Positions

M/V Ave Maria

Owner: Marquette Transportation Company Gulf-Inland, LLC, Jefferson, LA. More information available from US FCC via Universal Licensing System and Coast Guard Vessel Documentation Center.

Last reported at 2018-May-23 22:14 UTC. Time now 2018-May-24 00:31 UTC.
Position N 29°47' W 095°04'.

; draft 2.7 m.

Type: Towing. MMSI: 367126410.

Date/timePositionNaut miles runAvg speedWind from/ knotsBaromVisibWave heightAir tempDewpointWater temp
2018-May-23 22:14N 29°47' W 095°04'0 0.0
2018-May-23 21:50N 29°47' W 095°04'0 0.0
2018-May-23 21:17N 29°47' W 095°04'0 0.0
2018-May-23 20:43N 29°47' W 095°04'0 0.0
2018-May-23 20:21N 29°47' W 095°04'  
2018-May-21 04:43N 29°46' W 095°05'2 5.0
2018-May-21 04:13N 29°44' W 095°07'1 5.0
2018-May-21 03:57N 29°44' W 095°08'2 5.0
2018-May-21 03:30N 29°45' W 095°11'0 0.0
2018-May-20 20:26N 29°45' W 095°10'5 0.3
2018-May-20 03:36N 29°46' W 095°05'0 0.0
2018-May-20 03:18N 29°46' W 095°05'0 0.0
2018-May-19 13:17N 29°46' W 095°05'0 0.0
2018-May-19 12:57N 29°46' W 095°05'0 0.0
2018-May-19 11:35N 29°46' W 095°05'0 0.0
2018-May-19 09:16N 29°46' W 095°05'0 0.0
2018-May-19 08:50N 29°46' W 095°05'0 0.0
2018-May-19 08:23N 29°46' W 095°05'0 0.0
2018-May-19 08:00N 29°46' W 095°05'0 0.0
2018-May-19 07:21N 29°46' W 095°05'0 0.0
2018-May-19 06:43N 29°46' W 095°05'0 0.0
2018-May-19 06:16N 29°46' W 095°05'0 0.0
2018-May-19 06:00N 29°46' W 095°05'0 0.0
2018-May-19 05:22N 29°46' W 095°05'0 0.0
2018-May-19 05:00N 29°46' W 095°05'0 0.0
2018-May-19 04:31N 29°46' W 095°05'0 0.0
2018-May-19 03:32N 29°46' W 095°05'0 0.0
2018-May-19 03:29N 29°46' W 095°05'0 0.0
2018-May-19 02:39N 29°46' W 095°05'0 0.0
2018-May-19 02:28N 29°46' W 095°05'0 0.0
2018-May-19 01:28N 29°46' W 095°05'0 0.0
2018-May-19 00:56N 29°46' W 095°05'0 0.0
2018-May-18 13:38N 29°46' W 095°05'0 0.0
2018-May-18 12:22N 29°46' W 095°05'0 0.0
2018-May-18 12:00N 29°46' W 095°05'0 0.0
2018-May-18 11:28N 29°46' W 095°05'0 0.0
2018-May-18 10:59N 29°46' W 095°05'0 0.0
2018-May-18 10:29N 29°46' W 095°05'0 0.0
2018-May-18 10:00N 29°46' W 095°05'0 0.0
2018-May-18 09:30N 29°46' W 095°05'0 0.0
2018-May-18 09:01N 29°46' W 095°05'0 0.0
2018-May-18 08:29N 29°46' W 095°05'0 0.0
2018-May-18 08:00N 29°46' W 095°05'0 0.0
2018-May-18 07:30N 29°46' W 095°05'0 0.0
2018-May-18 07:00N 29°46' W 095°05'0 0.0
2018-May-18 06:30N 29°46' W 095°05'0 0.0
2018-May-18 06:00N 29°46' W 095°05'0 0.0
2018-May-18 05:30N 29°46' W 095°05'0 0.0
2018-May-18 05:01N 29°46' W 095°05'0 0.0
2018-May-18 04:31N 29°46' W 095°05'0 0.0
2018-May-18 04:01N 29°46' W 095°05'0 0.0
2018-May-18 03:30N 29°46' W 095°05'0 0.0
2018-May-18 03:00N 29°46' W 095°05'0 0.0
2018-May-18 02:30N 29°46' W 095°05'0 0.0
2018-May-18 02:00N 29°46' W 095°05'0 0.0
2018-May-18 01:25N 29°46' W 095°05'0 0.0
2018-May-17 14:00N 29°46' W 095°05'0 0.0
2018-May-17 13:30N 29°46' W 095°05'0 0.0
2018-May-17 13:00N 29°46' W 095°05'0 0.0
2018-May-17 12:30N 29°46' W 095°05'0 0.0
2018-May-17 11:59N 29°46' W 095°05'0 0.0
2018-May-17 11:29N 29°46' W 095°05'0 0.5
2018-May-17 10:59N 29°46' W 095°05'0 0.5
2018-May-17 10:30N 29°46' W 095°05'0 0.0
2018-May-17 10:00N 29°46' W 095°05'0 0.0
2018-May-17 09:30N 29°46' W 095°05'0 0.0
2018-May-17 09:00N 29°46' W 095°05'0 0.0
2018-May-17 08:28N 29°46' W 095°05'0 0.0
2018-May-17 08:00N 29°46' W 095°05'0 0.0
2018-May-17 07:30N 29°46' W 095°05'0 0.0
2018-May-17 06:46N 29°46' W 095°05'0 0.0
2018-May-17 06:28N 29°46' W 095°05'0 0.0
2018-May-17 06:00N 29°46' W 095°05'0 0.0
2018-May-17 05:30N 29°46' W 095°05'0 0.0
2018-May-17 05:00N 29°46' W 095°05'0 0.0
2018-May-17 04:29N 29°46' W 095°05'0 0.0
2018-May-17 04:01N 29°46' W 095°05'0 0.0
2018-May-17 03:30N 29°46' W 095°05'0 0.0
2018-May-17 03:00N 29°46' W 095°05'0 0.0
2018-May-17 02:30N 29°46' W 095°05'0 0.0
2018-May-17 02:00N 29°46' W 095°05'0 0.0
2018-May-17 01:30N 29°46' W 095°05'0 0.0
2018-May-16 14:59N 29°46' W 095°05'0 0.0
2018-May-16 14:30N 29°46' W 095°05'0 0.0
2018-May-16 14:00N 29°46' W 095°05'0 0.0
2018-May-16 13:30N 29°46' W 095°05'0 0.0
2018-May-16 13:00N 29°46' W 095°05'0 0.0
2018-May-16 12:30N 29°46' W 095°05'0 0.0
2018-May-16 12:01N 29°46' W 095°05'0 0.0
2018-May-16 11:31N 29°46' W 095°05'0 0.0
2018-May-16 11:00N 29°46' W 095°05'0 0.0
2018-May-16 10:30N 29°46' W 095°05'0 0.0
2018-May-16 10:00N 29°46' W 095°05'0 0.0
2018-May-16 09:30N 29°46' W 095°05'0 0.0
2018-May-16 09:00N 29°46' W 095°05'0 0.0
2018-May-16 08:30N 29°46' W 095°05'0 0.0
2018-May-16 08:00N 29°46' W 095°05'0 0.0
2018-May-16 07:30N 29°46' W 095°05'0 0.0
2018-May-16 07:00N 29°46' W 095°05'0 0.0
2018-May-16 06:28N 29°46' W 095°05'0 0.0
2018-May-16 06:00N 29°46' W 095°05'0 0.0
2018-May-16 05:30N 29°46' W 095°05'0 0.0
2018-May-16 04:59N 29°46' W 095°05'0 0.0
2018-May-16 04:30N 29°46' W 095°05'0 0.0
2018-May-16 04:00N 29°46' W 095°05'0 0.0
2018-May-16 03:30N 29°46' W 095°05'0 0.0
2018-May-16 03:00N 29°46' W 095°05'0 0.0
2018-May-16 02:29N 29°46' W 095°05'0 0.0
2018-May-16 02:00N 29°46' W 095°05'0 0.0
2018-May-16 01:30N 29°46' W 095°05'0 0.0
2018-May-16 01:00N 29°46' W 095°05'1 0.1
2018-May-15 19:27N 29°46' W 095°06'0 0.0
2018-May-15 18:59N 29°46' W 095°06'0 0.0
2018-May-15 18:16N 29°46' W 095°06'0 0.0
2018-May-15 17:58N 29°46' W 095°06'0 0.0
2018-May-15 17:30N 29°46' W 095°06'0 0.0
2018-May-15 17:00N 29°46' W 095°06'0 0.0
2018-May-15 16:25N 29°46' W 095°06'1 1.1
2018-May-15 15:41N 29°46' W 095°05'0 0.0
2018-May-15 15:19N 29°46' W 095°05'0 0.0
2018-May-15 14:49N 29°46' W 095°05'0 0.0
2018-May-15 14:30N 29°46' W 095°05'0 0.0
2018-May-15 14:00N 29°46' W 095°05'0 0.0
2018-May-15 13:30N 29°46' W 095°05'0 0.0
2018-May-15 13:00N 29°46' W 095°05'0 0.0
2018-May-15 12:30N 29°46' W 095°05'0 0.0
2018-May-15 12:00N 29°46' W 095°05'0 0.0
2018-May-15 11:30N 29°46' W 095°05'0 0.0
2018-May-15 11:00N 29°46' W 095°05'0 0.0
2018-May-15 10:30N 29°46' W 095°05'0 0.0
2018-May-15 10:00N 29°46' W 095°05'0 0.0
2018-May-15 09:26N 29°46' W 095°05'0 0.0
2018-May-15 09:00N 29°46' W 095°05'0 0.0
2018-May-15 08:30N 29°46' W 095°05'0 0.0
2018-May-15 08:00N 29°46' W 095°05'0 0.0
2018-May-15 07:28N 29°46' W 095°05'0 0.0
2018-May-15 07:00N 29°46' W 095°05'0 0.0
2018-May-15 06:30N 29°46' W 095°05'0 0.0
2018-May-15 06:00N 29°46' W 095°05'0 0.0
2018-May-15 05:30N 29°46' W 095°05'0 0.0
2018-May-15 05:00N 29°46' W 095°05'0 0.0
2018-May-15 04:30N 29°46' W 095°05'0 0.0
2018-May-15 03:56N 29°46' W 095°05'0 0.0
2018-May-15 03:30N 29°46' W 095°05'0 0.0
2018-May-15 03:00N 29°46' W 095°05'0 0.0
2018-May-15 02:30N 29°46' W 095°05'0 0.0
2018-May-15 02:00N 29°46' W 095°05'0 0.0
2018-May-15 01:30N 29°46' W 095°05'0 0.0
2018-May-15 01:00N 29°46' W 095°05'0 0.0
2018-May-15 00:28N 29°46' W 095°05'0 0.0
2018-May-14 16:39N 29°46' W 095°05'0 0.0
2018-May-14 16:28N 29°46' W 095°05'0 0.0
2018-May-14 16:00N 29°46' W 095°05'0 0.0
2018-May-14 15:27N 29°46' W 095°05'0 0.0
2018-May-14 14:56N 29°46' W 095°05'0 0.0
2018-May-14 14:21N 29°46' W 095°05'0 0.0
2018-May-14 13:54N 29°46' W 095°05'0 0.0
2018-May-14 13:24N 29°46' W 095°05'0 0.0
2018-May-14 13:00N 29°46' W 095°05'0 0.0
2018-May-14 12:30N 29°46' W 095°05'0 0.0
2018-May-14 11:45N 29°46' W 095°05'0 0.0
2018-May-14 11:09N 29°46' W 095°05'0 0.0
2018-May-14 10:14N 29°46' W 095°05'0 0.0
2018-May-14 05:55N 29°46' W 095°05'0 0.0
2018-May-14 03:53N 29°46' W 095°05'0 0.0
2018-May-14 03:30N 29°46' W 095°05'0 0.0
2018-May-14 02:57N 29°46' W 095°05'0 0.0
2018-May-14 02:20N 29°46' W 095°05'0 0.0
2018-May-14 02:00N 29°46' W 095°05'0 0.0
2018-May-14 00:51N 29°46' W 095°05'0 0.0
2018-May-14 00:15N 29°46' W 095°05'0 0.0
2018-May-13 23:57N 29°46' W 095°05'0 0.0
2018-May-13 23:30N 29°46' W 095°05'  

Dump ship's entire track history